首页
METAR-TAF:

METAR-TAF

机场 :

North Las Vegas Airport

北拉斯維加斯, 内华达州, 美国

纬度: 36-12-42N, 经度: 115-11-45W, 海拔: 672米

当前天气观测

该预报发布于47分钟前的17:53 UTC
风速9节,风向东南
温度 33°C
湿度 11%
气压 1014 hPa
能見度: 16.1公里
天空无云

METAR: KVGT 011753Z 14009KT 10SM CLR 33/M01 A2994 RMK AO2 SLP126 T03331006 10333 20222 50004

时间: 11:40 (18:40 UTC)

预报

该预报发布于57分钟前的17:43 UTC
预报有效从01日的 18点(UTC)到 02日的 18点(UTC)
风速10节,风向南转南东
能見度: 10公里
多云层高于25000英尺
从 01日的 2000点(UTC)
风速12节,风向,有时为20节阵风
能見度: 10公里
多云层高于25000英尺
从 02日的 0300点(UTC)
风速8节,风向西
能見度: 10公里
多云层高于25000英尺
从 02日的 0700点(UTC)
风速5节,风向多变
能見度: 10公里
多云层高于25000英尺
从 02日的 1700点(UTC)
风速7节,风向东南
能見度: 10公里
少量云层高于14000英尺
多云层高于25000英尺

TAF: KVGT 011743Z 0118/0218 16010KT P6SM BKN250 FM012000 19012G20KT P6SM BKN250 FM020300 28008KT P6SM BKN250 FM020700 VRB05KT P6SM BKN250 FM021700 14007KT P6SM FEW140 BKN250

超过4000个机场的气象观测和天气预报(METAR&TAF报告)。

可查询的气象台以黄色和红色小点在地图上表示。

将鼠标移到小点上方,可查看气象台名称。

然后点击查看天气观测和预报。

如需切换地图:点击带黑十字的绿色按钮放大地图;点击带横线的绿色按钮缩小地图;或者点击绿色箭头查看邻近地区的地图。


METAR-TAF: